Time;durP1;ratioP1;P1;durP2;ratioP2;P2;SDS_P1;SDS_P2;PMS_P1;PMS_P2;Temp;Humidity;BMP_temperature;BMP_pressure;BME280_temperature;BME280_humidity;BME280_pressure;Samples;Min_cycle;Max_cycle;Signal;HPM_P1;HPM_P2
2023/07/22 00:01:12;;;;;;;4.45;2.20;;;;;;;18.11;100.00;96634.63;5042987;28;20228;-69
2023/07/22 00:03:38;;;;;;;4.35;2.35;;;;;;;18.12;100.00;96636.31;5042285;28;20553;-69
2023/07/22 00:06:06;;;;;;;3.40;2.50;;;;;;;18.16;100.00;96637.59;5041537;28;20215;-69
2023/07/22 00:08:32;;;;;;;4.78;3.00;;;;;;;18.13;100.00;96637.97;5042591;28;20291;-69
2023/07/22 00:11:00;;;;;;;2.63;2.42;;;;;;;18.09;100.00;96637.53;5042284;28;20231;-69
2023/07/22 00:13:27;;;;;;;4.10;3.03;;;;;;;18.04;100.00;96636.41;5042366;28;20200;-69
2023/07/22 00:15:54;;;;;;;4.47;2.35;;;;;;;17.97;100.00;96633.69;5040736;28;20236;-69
2023/07/22 00:18:20;;;;;;;2.75;2.55;;;;;;;17.97;100.00;96644.38;5042358;28;20214;-69
2023/07/22 00:20:50;;;;;;;3.17;2.67;;;;;;;17.97;100.00;96635.50;5041978;28;20206;-69
2023/07/22 00:23:17;;;;;;;2.70;2.50;;;;;;;17.97;100.00;96627.50;5042328;28;20200;-69
2023/07/22 00:25:45;;;;;;;2.55;2.35;;;;;;;17.98;100.00;96626.47;5043825;28;20429;-64
2023/07/22 00:28:13;;;;;;;4.13;2.70;;;;;;;17.99;100.00;96625.47;5045999;28;20218;-69
2023/07/22 00:30:39;;;;;;;2.95;2.63;;;;;;;18.01;100.00;96623.41;5044016;28;20223;-68
2023/07/22 00:33:06;;;;;;;2.95;2.75;;;;;;;18.04;100.00;96629.22;5042687;28;20202;-69
2023/07/22 00:35:33;;;;;;;3.97;2.20;;;;;;;18.04;100.00;96625.72;5042815;28;20305;-69
2023/07/22 00:37:59;;;;;;;2.85;2.60;;;;;;;18.05;100.00;96619.34;5043255;28;20203;-65
2023/07/22 00:40:26;;;;;;;4.20;2.83;;;;;;;18.05;100.00;96622.03;5043292;28;20196;-68
2023/07/22 00:42:52;;;;;;;3.38;2.58;;;;;;;18.11;100.00;96619.41;5042617;28;20582;-69
2023/07/22 00:45:20;;;;;;;3.05;2.72;;;;;;;18.15;100.00;96620.69;5043127;28;20202;-66
2023/07/22 00:47:47;;;;;;;4.75;2.70;;;;;;;18.20;100.00;96618.28;5042436;28;20551;-68
2023/07/22 00:50:13;;;;;;;4.13;3.15;;;;;;;18.25;100.00;96609.66;5042550;28;20227;-68
2023/07/22 00:52:40;;;;;;;5.13;3.10;;;;;;;18.30;100.00;96604.56;5042221;28;20218;-69
2023/07/22 00:55:07;;;;;;;3.35;3.13;;;;;;;18.33;100.00;96606.88;5043311;28;20215;-68
2023/07/22 00:57:34;;;;;;;3.00;2.80;;;;;;;18.36;100.00;96606.47;5042095;28;20632;-68
2023/07/22 01:00:01;;;;;;;3.00;2.80;;;;;;;18.35;100.00;96604.84;5042472;28;20238;-69
2023/07/22 01:02:29;;;;;;;3.72;3.30;;;;;;;18.33;100.00;96604.19;5043121;28;20214;-70
2023/07/22 01:04:55;;;;;;;3.70;3.38;;;;;;;18.28;100.00;96603.94;5044568;28;20227;-70
2023/07/22 01:07:22;;;;;;;3.85;3.13;;;;;;;18.33;100.00;96606.88;5043276;28;20207;-69
2023/07/22 01:09:49;;;;;;;4.07;3.40;;;;;;;18.34;100.00;96603.19;5042078;28;20302;-69
2023/07/22 01:12:15;;;;;;;3.30;3.10;;;;;;;18.31;100.00;96603.56;5041855;28;20204;-70
2023/07/22 01:14:42;;;;;;;3.35;2.97;;;;;;;18.38;100.00;96609.81;5044350;28;20208;-72
2023/07/22 01:17:10;;;;;;;4.43;3.13;;;;;;;18.39;100.00;96611.44;5042531;28;20231;-69
2023/07/22 01:19:38;;;;;;;3.42;3.20;;;;;;;18.42;100.00;96605.72;5043354;28;20215;-71
2023/07/22 01:22:07;;;;;;;3.28;3.00;;;;;;;18.48;100.00;96612.97;5045472;28;20302;-70
2023/07/22 01:24:35;;;;;;;2.92;2.72;;;;;;;18.51;100.00;96606.44;5044927;28;20210;-65
2023/07/22 01:27:03;;;;;;;3.47;3.17;;;;;;;18.52;100.00;96603.59;5042719;28;20215;-70
2023/07/22 01:29:29;;;;;;;3.20;2.92;;;;;;;18.58;100.00;96597.44;5042592;28;20202;-69
2023/07/22 01:31:56;;;;;;;3.60;3.20;;;;;;;18.59;100.00;96598.28;5041453;28;20239;-69
2023/07/22 01:34:24;;;;;;;3.67;3.35;;;;;;;18.56;100.00;96601.34;5042532;28;20208;-70
2023/07/22 01:36:51;;;;;;;3.67;3.38;;;;;;;18.56;100.00;96596.00;5042839;28;20207;-72
2023/07/22 01:39:18;;;;;;;3.83;2.97;;;;;;;18.55;100.00;96589.81;5041777;28;20207;-71
2023/07/22 01:41:46;;;;;;;3.80;2.90;;;;;;;18.53;100.00;96591.81;5041669;28;21240;-70
2023/07/22 01:44:12;;;;;;;3.40;3.10;;;;;;;18.50;100.00;96589.50;5041261;28;20697;-72
2023/07/22 01:46:39;;;;;;;4.07;3.33;;;;;;;18.51;100.00;96595.72;5040353;28;20223;-70
2023/07/22 01:49:08;;;;;;;4.05;3.13;;;;;;;18.52;100.00;96598.22;5040643;28;20200;-70
2023/07/22 01:51:34;;;;;;;3.22;3.03;;;;;;;18.48;100.00;96602.28;5040715;28;20218;-70
2023/07/22 01:54:01;;;;;;;3.30;2.65;;;;;;;18.47;100.00;96597.09;5041145;28;20246;-71
2023/07/22 01:56:27;;;;;;;6.03;3.50;;;;;;;18.39;100.00;96608.75;5041276;28;20218;-70
2023/07/22 01:58:56;;;;;;;4.20;3.10;;;;;;;18.37;100.00;96608.97;5040432;28;20303;-70
2023/07/22 02:01:24;;;;;;;5.40;3.00;;;;;;;18.36;100.00;96601.97;5041494;28;20540;-71
2023/07/22 02:03:50;;;;;;;3.92;3.25;;;;;;;18.36;100.00;96601.13;5040628;28;20211;-69
2023/07/22 02:06:17;;;;;;;3.25;3.00;;;;;;;18.30;100.00;96601.91;5040300;28;20231;-72
2023/07/22 02:08:43;;;;;;;4.13;3.40;;;;;;;18.34;100.00;96600.50;5040575;28;20195;-71
2023/07/22 02:11:09;;;;;;;3.70;3.50;;;;;;;18.30;100.00;96596.53;5041644;28;20230;-70
2023/07/22 02:13:36;;;;;;;4.07;2.90;;;;;;;18.23;100.00;96601.00;5040862;28;20518;-70
2023/07/22 02:16:05;;;;;;;3.17;2.92;;;;;;;18.19;100.00;96616.63;5040646;28;20739;-70
2023/07/22 02:18:31;;;;;;;8.13;3.38;;;;;;;18.10;100.00;96604.41;5041095;28;20664;-70
2023/07/22 02:20:58;;;;;;;3.63;3.33;;;;;;;18.10;100.00;96601.72;5041281;28;20211;-72
2023/07/22 02:23:25;;;;;;;4.75;3.22;;;;;;;18.05;100.00;96603.28;5040855;28;20199;-71
2023/07/22 02:25:52;;;;;;;5.13;3.13;;;;;;;18.03;100.00;96605.34;5041051;28;20204;-71
2023/07/22 02:28:21;;;;;;;4.63;3.03;;;;;;;17.97;100.00;96598.06;5043759;28;20215;-71
2023/07/22 02:30:47;;;;;;;4.03;3.15;;;;;;;17.88;100.00;96595.53;5044012;28;20600;-71
2023/07/22 02:33:15;;;;;;;5.07;3.03;;;;;;;17.82;100.00;96606.97;5045214;28;20219;-72
2023/07/22 02:35:42;;;;;;;5.72;3.05;;;;;;;17.71;100.00;96604.78;5047654;28;20195;-72
2023/07/22 02:38:08;;;;;;;4.03;3.10;;;;;;;17.70;100.00;96599.63;5048035;28;20261;-72
2023/07/22 02:40:35;;;;;;;4.38;2.78;;;;;;;17.62;100.00;96591.72;5048658;28;20207;-72
2023/07/22 02:43:01;;;;;;;3.95;3.30;;;;;;;17.60;100.00;96588.41;5049735;28;20203;-71
2023/07/22 02:45:28;;;;;;;4.20;3.20;;;;;;;17.47;100.00;96594.38;5047398;28;20222;-71
2023/07/22 02:47:55;;;;;;;2.90;2.70;;;;;;;17.45;100.00;96591.06;5048910;28;20207;-72
2023/07/22 02:50:22;;;;;;;3.58;2.63;;;;;;;17.40;100.00;96593.47;5046310;28;20222;-70
2023/07/22 02:52:49;;;;;;;3.03;2.75;;;;;;;17.35;100.00;96591.38;5044113;28;20218;-70
2023/07/22 02:55:18;;;;;;;3.70;2.63;;;;;;;17.29;100.00;96588.59;5045282;28;20204;-72
2023/07/22 02:57:46;;;;;;;4.10;2.88;;;;;;;17.29;100.00;96593.94;5044100;28;20210;-70
2023/07/22 03:00:17;;;;;;;2.78;2.53;;;;;;;17.26;100.00;96591.63;5045741;28;20204;-70
2023/07/22 03:02:44;;;;;;;3.15;2.85;;;;;;;17.33;100.00;96597.91;5043986;28;20278;-71
2023/07/22 03:05:11;;;;;;;2.83;2.63;;;;;;;17.31;100.00;96589.25;5044531;28;20195;-71
2023/07/22 03:07:39;;;;;;;3.95;2.90;;;;;;;17.22;100.00;96582.31;5044224;28;20212;-71
2023/07/22 03:10:06;;;;;;;3.50;2.78;;;;;;;17.21;100.00;96578.84;5043714;28;20853;-71
2023/07/22 03:12:33;;;;;;;23.33;3.85;;;;;;;17.19;100.00;96586.19;5043811;28;20215;-72
2023/07/22 03:15:00;;;;;;;3.72;3.13;;;;;;;17.23;100.00;96586.66;5044375;28;20209;-71
2023/07/22 03:17:27;;;;;;;3.80;2.92;;;;;;;17.23;100.00;96586.66;5043772;28;20239;-72
2023/07/22 03:19:54;;;;;;;3.00;2.80;;;;;;;17.21;100.00;96594.03;5042985;28;20207;-70
2023/07/22 03:22:20;;;;;;;5.47;2.92;;;;;;;17.26;100.00;96597.81;5043487;28;20195;-72
2023/07/22 03:24:48;;;;;;;4.85;2.90;;;;;;;17.26;100.00;96594.31;5043778;28;20215;-71
2023/07/22 03:27:17;;;;;;;5.85;3.08;;;;;;;17.26;100.00;96587.13;5043490;28;20211;-71
2023/07/22 03:29:43;;;;;;;3.90;2.90;;;;;;;17.26;100.00;96592.47;5042883;28;20218;-71
2023/07/22 03:32:10;;;;;;;4.85;3.00;;;;;;;17.29;100.00;96591.25;5043381;28;20558;-72
2023/07/22 03:34:36;;;;;;;3.45;3.15;;;;;;;17.29;100.00;96585.91;5042866;28;20630;-71
2023/07/22 03:37:03;;;;;;;3.13;2.80;;;;;;;17.27;100.00;96587.94;5043091;28;20203;-72
2023/07/22 03:39:29;;;;;;;5.18;2.90;;;;;;;17.22;100.00;96590.34;5042739;28;20289;-71
2023/07/22 03:41:57;;;;;;;3.05;2.83;;;;;;;17.14;100.00;96583.28;5043019;28;20203;-71
2023/07/22 03:44:24;;;;;;;3.05;2.80;;;;;;;17.15;100.00;96589.44;5042437;28;20651;-72
2023/07/22 03:46:52;;;;;;;3.05;2.70;;;;;;;17.10;100.00;96594.50;5043802;28;20302;-71
2023/07/22 03:49:18;;;;;;;3.53;2.63;;;;;;;17.08;100.00;96594.69;5043016;28;20222;-70
2023/07/22 03:51:46;;;;;;;3.15;2.88;;;;;;;17.01;100.00;96596.44;5042715;28;20224;-70
2023/07/22 03:54:13;;;;;;;5.53;3.03;;;;;;;16.96;100.00;96600.69;5043116;28;20262;-70
2023/07/22 03:56:41;;;;;;;2.90;2.70;;;;;;;17.01;100.00;96600.94;5042267;28;20648;-72
2023/07/22 03:59:09;;;;;;;3.33;3.05;;;;;;;16.97;100.00;96599.69;5042701;28;20211;-72
2023/07/22 04:01:36;;;;;;;4.82;2.70;;;;;;;16.85;100.00;96604.63;5043028;28;20195;-69
2023/07/22 04:04:02;;;;;;;3.58;3.03;;;;;;;16.74;100.00;96595.22;5043445;28;20203;-69
2023/07/22 04:06:29;;;;;;;3.20;2.90;;;;;;;16.74;100.00;96594.41;5042280;28;20206;-69
2023/07/22 04:08:55;;;;;;;3.55;3.25;;;;;;;16.76;100.00;96609.22;5042519;28;20203;-70
2023/07/22 04:11:21;;;;;;;3.30;3.00;;;;;;;16.73;100.00;96606.06;5042193;28;20219;-70
2023/07/22 04:13:48;;;;;;;4.47;3.00;;;;;;;16.73;100.00;96611.41;5042417;28;20211;-69
2023/07/22 04:16:16;;;;;;;3.25;2.95;;;;;;;16.72;100.00;96615.13;5042773;28;20266;-70
2023/07/22 04:18:43;;;;;;;4.25;2.90;;;;;;;16.69;100.00;96616.28;5042425;28;20623;-70
2023/07/22 04:21:09;;;;;;;3.17;2.95;;;;;;;16.67;100.00;96617.50;5042573;28;20206;-69
2023/07/22 04:23:37;;;;;;;3.17;2.88;;;;;;;16.70;100.00;96617.97;5042141;28;20203;-69
2023/07/22 04:26:07;;;;;;;5.15;3.20;;;;;;;16.67;100.00;96622.84;5042420;28;20214;-70
2023/07/22 04:28:34;;;;;;;4.07;2.80;;;;;;;16.59;100.00;96615.72;5041720;28;20212;-70
2023/07/22 04:31:00;;;;;;;4.00;3.30;;;;;;;16.64;100.00;96620.53;5042744;28;20227;-70
2023/07/22 04:33:28;;;;;;;3.70;3.35;;;;;;;16.57;100.00;96623.09;5040752;28;20211;-70
2023/07/22 04:35:58;;;;;;;3.10;2.80;;;;;;;16.55;100.00;96626.91;5040821;28;20236;-70
2023/07/22 04:38:24;;;;;;;3.03;2.83;;;;;;;16.58;100.00;96627.41;5041775;28;20635;-69
2023/07/22 04:40:51;;;;;;;3.35;3.05;;;;;;;16.58;100.00;96619.41;5041915;28;20211;-71
2023/07/22 04:43:17;;;;;;;3.42;3.10;;;;;;;16.59;100.00;96625.56;5041554;28;20230;-69
2023/07/22 04:45:47;;;;;;;3.42;3.13;;;;;;;16.54;100.00;96631.44;5042265;28;20664;-70
2023/07/22 04:48:17;;;;;;;3.03;2.83;;;;;;;16.55;100.00;96624.25;5044019;28;20200;-71
2023/07/22 04:50:45;;;;;;;2.80;2.60;;;;;;;16.58;100.00;96632.75;5046597;28;20646;-71
2023/07/22 04:53:13;;;;;;;3.33;3.10;;;;;;;16.63;100.00;96632.22;5047777;28;20214;-70
2023/07/22 04:55:40;;;;;;;6.97;3.00;;;;;;;16.68;100.00;96632.50;5044754;28;20233;-70
2023/07/22 04:58:07;;;;;;;3.30;3.00;;;;;;;16.72;100.00;96637.28;5043963;28;20199;-70
2023/07/22 05:00:33;;;;;;;3.97;3.08;;;;;;;16.73;100.00;96632.78;5043935;28;20325;-70
2023/07/22 05:03:00;;;;;;;3.85;2.95;;;;;;;16.78;100.00;96647.28;5042876;28;20203;-69
2023/07/22 05:05:26;;;;;;;3.40;3.10;;;;;;;16.86;100.00;96639.16;5043080;28;20207;-70
2023/07/22 05:07:54;;;;;;;3.40;3.10;;;;;;;16.92;100.00;96640.28;5042403;28;20203;-71
2023/07/22 05:10:21;;;;;;;4.35;2.90;;;;;;;16.98;100.00;96638.72;5041947;28;20219;-72
2023/07/22 05:12:47;;;;;;;6.90;3.05;;;;;;;17.00;100.00;96648.22;5041939;28;20227;-70
2023/07/22 05:15:15;;;;;;;5.25;3.40;;;;;;;17.05;100.00;96643.16;5041968;28;20234;-70
2023/07/22 05:17:41;;;;;;;3.63;3.33;;;;;;;17.12;100.00;96648.59;5042219;28;20238;-70
2023/07/22 05:20:10;;;;;;;3.97;3.03;;;;;;;17.16;100.00;96650.72;5042467;28;20195;-70
2023/07/22 05:22:37;;;;;;;3.20;3.00;;;;;;;17.20;100.00;96654.69;5040594;28;20628;-71
2023/07/22 05:25:06;;;;;;;3.20;2.90;;;;;;;17.26;100.00;96640.56;5041944;28;20314;-70
2023/07/22 05:27:33;;;;;;;6.93;3.22;;;;;;;17.40;100.00;96641.59;5042935;28;20940;-69
2023/07/22 05:29:59;;;;;;;4.15;3.40;;;;;;;17.52;100.00;96650.81;5040867;28;20202;-69
2023/07/22 05:32:26;;;;;;;4.10;3.72;;;;;;;17.61;100.00;96649.69;5040975;28;20672;-69
2023/07/22 05:34:53;;;;;;;5.63;3.50;;;;;;;17.60;100.00;96648.06;5040995;28;20223;-69
2023/07/22 05:37:19;;;;;;;4.97;3.53;;;;;;;17.68;100.00;96655.13;5041249;28;20261;-70
2023/07/22 05:39:46;;;;;;;5.03;4.03;;;;;;;17.61;100.00;96649.69;5041428;28;20212;-69
2023/07/22 05:42:14;;;;;;;5.15;3.83;;;;;;;17.66;100.00;96657.19;5041188;28;20199;-69
2023/07/22 05:44:40;;;;;;;4.93;3.60;;;;;;;17.69;100.00;96662.97;5040127;28;20597;-69
2023/07/22 05:47:07;;;;;;;3.65;3.35;;;;;;;17.72;100.00;96659.94;5041814;28;20203;-70
2023/07/22 05:49:34;;;;;;;5.20;3.90;;;;;;;17.74;100.00;96665.09;5041031;28;20533;-70
2023/07/22 05:52:01;;;;;;;4.00;3.70;;;;;;;17.83;100.00;96669.31;5041143;28;20243;-70
2023/07/22 05:54:27;;;;;;;3.85;3.55;;;;;;;17.88;100.00;96672.28;5041116;28;20572;-70
2023/07/22 05:56:54;;;;;;;3.88;3.58;;;;;;;18.09;100.00;96674.16;5041013;28;20808;-70
2023/07/22 05:59:22;;;;;;;3.72;3.45;;;;;;;18.34;100.00;96672.78;5040026;28;20659;-71
2023/07/22 06:01:49;;;;;;;3.90;3.60;;;;;;;18.50;100.00;96672.53;5043387;28;20206;-70
2023/07/22 06:04:15;;;;;;;4.07;3.78;;;;;;;18.72;100.00;96674.22;5044210;28;20200;-69
2023/07/22 06:06:42;;;;;;;3.78;3.47;;;;;;;18.96;100.00;96666.75;5043992;28;20561;-68
2023/07/22 06:09:08;;;;;;;3.92;3.63;;;;;;;19.13;100.00;96673.50;5044668;28;20264;-72
2023/07/22 06:11:35;;;;;;;9.35;4.38;;;;;;;19.31;100.00;96679.19;5044182;28;20234;-70
2023/07/22 06:14:02;;;;;;;3.78;3.47;;;;;;;19.48;100.00;96667.16;5044916;28;20210;-69
2023/07/22 06:16:30;;;;;;;3.72;3.45;;;;;;;19.69;100.00;96675.13;5044479;28;20242;-71
2023/07/22 06:18:56;;;;;;;4.13;3.72;;;;;;;19.87;100.00;96677.28;5044567;28;20203;-70
2023/07/22 06:21:23;;;;;;;6.82;3.65;;;;;;;20.02;100.00;96679.78;5045338;28;20215;-70
2023/07/22 06:23:49;;;;;;;3.80;3.50;;;;;;;20.19;100.00;96675.75;5044396;28;20294;-70
2023/07/22 06:26:16;;;;;;;3.80;3.30;;;;;;;20.33;100.00;96678.25;5044603;28;20613;-71
2023/07/22 06:28:43;;;;;;;5.32;3.65;;;;;;;20.47;100.00;96679.16;5044051;28;20663;-72
2023/07/22 06:31:09;;;;;;;4.13;3.55;;;;;;;20.68;100.00;96684.34;5044641;28;20235;-71
2023/07/22 06:33:37;;;;;;;4.32;3.17;;;;;;;20.95;100.00;96687.03;5045118;28;20565;-69
2023/07/22 06:36:05;;;;;;;3.45;3.00;;;;;;;21.19;100.00;96683.75;5043947;28;20207;-71
2023/07/22 06:38:32;;;;;;;3.33;3.13;;;;;;;21.37;100.00;96689.31;5044654;28;20210;-72
2023/07/22 06:40:58;;;;;;;3.88;3.50;;;;;;;21.50;97.65;96688.47;5044531;28;20222;-71
2023/07/22 06:43:25;;;;;;;4.05;3.65;;;;;;;21.64;96.39;96696.31;5044040;28;20212;-70
2023/07/22 06:45:51;;;;;;;4.00;3.30;;;;;;;21.83;95.96;96692.72;5044170;28;20615;-70
2023/07/22 06:48:18;;;;;;;4.22;3.35;;;;;;;21.97;95.97;96692.72;5043566;28;20204;-71
2023/07/22 06:50:49;;;;;;;3.42;3.22;;;;;;;22.17;91.80;96693.47;5043990;28;20203;-70
2023/07/22 06:53:15;;;;;;;3.88;3.17;;;;;;;22.30;90.61;96693.41;5043980;28;20223;-71
2023/07/22 06:55:49;;;;;;;3.05;2.78;;;;;;;22.55;90.51;96694.31;5043496;28;20206;-70
2023/07/22 06:58:15;;;;;;;3.17;2.60;;;;;;;22.69;89.13;96687.81;5048837;28;20266;-71
2023/07/22 07:00:42;;;;;;;3.00;2.80;;;;;;;22.81;87.47;96696.84;5064048;28;20222;-75
2023/07/22 07:03:08;;;;;;;3.35;2.95;;;;;;;22.87;83.92;96694.31;5061987;28;20194;-72
2023/07/22 07:05:35;;;;;;;2.90;2.70;;;;;;;23.14;84.96;96687.66;5051077;28;20622;-72
2023/07/22 07:08:03;;;;;;;3.35;2.65;;;;;;;23.21;81.59;96691.97;5045077;28;20539;-72
2023/07/22 07:10:30;;;;;;;5.15;2.85;;;;;;;23.35;80.31;96692.66;5044993;28;20216;-70
2023/07/22 07:12:57;;;;;;;4.13;2.72;;;;;;;23.42;80.74;96698.88;5043483;28;20234;-69
2023/07/22 07:15:24;;;;;;;3.50;2.78;;;;;;;23.56;80.96;96694.19;5044580;28;20195;-70
2023/07/22 07:17:51;;;;;;;3.05;2.80;;;;;;;23.63;80.26;96690.34;5045285;28;20727;-70
2023/07/22 07:20:18;;;;;;;2.90;2.70;;;;;;;23.84;77.58;96696.38;5045376;28;20207;-71
2023/07/22 07:22:44;;;;;;;3.88;2.47;;;;;;;23.90;74.14;96690.91;5044384;28;20207;-71
2023/07/22 07:25:15;;;;;;;2.63;2.42;;;;;;;24.06;74.93;96697.56;5045523;28;20214;-71
2023/07/22 07:27:41;;;;;;;2.65;2.45;;;;;;;23.94;74.99;96692.09;5043959;28;20208;-70
2023/07/22 07:30:09;;;;;;;2.60;2.40;;;;;;;23.63;75.05;96690.34;5044302;28;20195;-72
2023/07/22 07:32:36;;;;;;;2.60;2.40;;;;;;;23.73;73.55;96695.25;5042742;28;20254;-71
2023/07/22 07:35:04;;;;;;;2.70;2.50;;;;;;;24.00;74.49;96690.38;5043919;28;20218;-71
2023/07/22 07:37:30;;;;;;;2.50;2.30;;;;;;;24.14;72.30;96694.59;5043224;28;20537;-72
2023/07/22 07:39:59;;;;;;;2.40;2.22;;;;;;;24.36;71.10;96701.16;5043948;28;20208;-70
2023/07/22 07:42:27;;;;;;;2.42;2.22;;;;;;;24.37;70.12;96697.44;5044353;28;20199;-71
2023/07/22 07:44:54;;;;;;;2.63;2.42;;;;;;;24.00;68.87;96701.16;5044831;28;20206;-72
2023/07/22 07:47:20;;;;;;;2.95;2.42;;;;;;;24.00;70.21;96701.16;5047397;28;20212;-71
2023/07/22 07:49:47;;;;;;;2.88;2.40;;;;;;;24.20;72.19;96701.78;5043176;28;20204;-71
2023/07/22 07:52:14;;;;;;;2.58;2.38;;;;;;;24.34;69.68;96699.75;5044065;28;20215;-71
2023/07/22 07:54:40;;;;;;;2.80;2.60;;;;;;;24.17;65.46;96696.84;5042160;28;20200;-71
2023/07/22 07:57:08;;;;;;;3.33;2.22;;;;;;;23.96;66.22;96699.97;5042393;28;20203;-71
2023/07/22 07:59:36;;;;;;;3.95;2.95;;;;;;;24.04;66.78;96702.38;5042823;28;20529;-71
2023/07/22 08:02:04;;;;;;;3.45;3.15;;;;;;;23.93;64.71;96711.22;5042282;28;20654;-72
2023/07/22 08:04:30;;;;;;;2.70;2.50;;;;;;;23.73;67.94;96700.66;5043358;28;20269;-71
2023/07/22 08:06:57;;;;;;;2.60;2.40;;;;;;;23.38;63.82;96708.44;5043507;28;20269;-70
2023/07/22 08:09:23;;;;;;;2.30;2.10;;;;;;;23.14;64.29;96701.16;5046239;28;20199;-71
2023/07/22 08:11:50;;;;;;;2.20;2.10;;;;;;;22.96;64.17;96703.78;5046192;28;20195;-71
2023/07/22 08:14:17;;;;;;;2.35;2.22;;;;;;;23.09;65.85;96696.44;5043728;28;20219;-71
2023/07/22 08:16:44;;;;;;;3.42;2.28;;;;;;;23.22;65.01;96700.91;5042324;28;20242;-71
2023/07/22 08:19:12;;;;;;;3.55;2.53;;;;;;;23.51;62.07;96697.53;5043645;28;20207;-70
2023/07/22 08:21:38;;;;;;;2.95;2.30;;;;;;;23.89;62.82;96693.81;5041944;28;20675;-68
2023/07/22 08:24:07;;;;;;;2.33;2.13;;;;;;;24.32;64.31;96699.97;5042122;28;20223;-68
2023/07/22 08:26:33;;;;;;;2.88;2.30;;;;;;;24.42;64.97;96692.13;5042348;28;20210;-68
2023/07/22 08:29:00;;;;;;;2.63;2.42;;;;;;;24.36;61.02;96693.06;5042443;28;20222;-67
2023/07/22 08:31:26;;;;;;;2.17;1.95;;;;;;;24.71;62.23;96706.72;5042227;28;20533;-68
2023/07/22 08:33:54;;;;;;;2.90;2.33;;;;;;;24.72;62.30;96702.97;5042559;28;20242;-70
2023/07/22 08:36:20;;;;;;;2.45;1.90;;;;;;;24.82;60.68;96702.41;5042332;28;20538;-67
2023/07/22 08:38:47;;;;;;;2.40;2.22;;;;;;;24.69;60.04;96695.31;5043849;28;20212;-70
2023/07/22 08:41:15;;;;;;;2.45;2.25;;;;;;;25.05;62.22;96689.78;5041926;28;20217;-69
2023/07/22 08:43:42;;;;;;;2.22;2.10;;;;;;;25.22;61.03;96693.44;5042272;28;20284;-70
2023/07/22 08:46:10;;;;;;;2.20;2.10;;;;;;;25.18;57.52;96699.56;5041898;28;20226;-70
2023/07/22 08:48:37;;;;;;;2.28;2.08;;;;;;;25.27;56.52;96687.34;5042435;28;20199;-69
2023/07/22 08:51:11;;;;;;;2.50;2.30;;;;;;;25.19;58.87;96693.91;5042635;28;20632;-71
2023/07/22 08:53:38;;;;;;;2.40;2.20;;;;;;;25.24;60.96;96693.22;5042346;28;20219;-67
2023/07/22 08:56:05;;;;;;;1.90;1.80;;;;;;;25.29;56.19;96698.78;5041470;28;20222;-69
2023/07/22 08:58:31;;;;;;;2.38;2.17;;;;;;;25.15;53.90;96700.03;5041825;28;20199;-67
2023/07/22 09:00:59;;;;;;;3.55;2.25;;;;;;;25.57;58.15;96696.22;5044663;28;20214;-67
2023/07/22 09:03:25;;;;;;;2.10;2.00;;;;;;;26.01;56.63;96680.38;5042502;28;20210;-69
2023/07/22 09:05:52;;;;;;;1.95;1.85;;;;;;;26.28;57.47;96686.94;5042038;28;20203;-69
2023/07/22 09:08:20;;;;;;;2.03;1.92;;;;;;;26.26;54.98;96690.94;5043313;28;20206;-69
2023/07/22 09:10:47;;;;;;;2.17;1.98;;;;;;;26.36;57.24;96685.75;5042316;28;20214;-68
2023/07/22 09:13:15;;;;;;;2.45;2.17;;;;;;;26.18;55.71;96690.25;5043706;28;20679;-70
2023/07/22 09:15:42;;;;;;;2.63;2.38;;;;;;;25.99;56.87;96683.34;5042843;28;20236;-69
2023/07/22 09:18:08;;;;;;;2.55;2.35;;;;;;;25.55;59.39;96695.63;5043417;28;20522;-74
2023/07/22 09:20:35;;;;;;;3.00;1.73;;;;;;;25.03;60.97;96696.47;5043826;28;20206;-71
2023/07/22 09:23:01;;;;;;;2.40;2.30;;;;;;;24.50;64.21;96708.06;5026025;28;20226;-68
2023/07/22 09:25:30;;;;;;;3.55;2.80;;;;;;;23.91;70.94;96706.06;5043985;28;20604;-70
2023/07/22 09:27:59;;;;;;;4.22;2.83;;;;;;;23.36;80.43;96702.44;5044329;28;20203;-69
2023/07/22 09:30:26;;;;;;;2.85;2.35;;;;;;;22.96;87.82;96698.41;5046415;28;20203;-68
2023/07/22 09:32:54;;;;;;;2.97;2.50;;;;;;;22.88;86.42;96704.06;5043861;28;20280;-70
2023/07/22 09:35:21;;;;;;;3.10;2.70;;;;;;;22.70;90.03;96704.81;5045976;28;20204;-70
2023/07/22 09:37:48;;;;;;;3.45;2.70;;;;;;;22.45;92.77;96702.03;5045633;28;20203;-68
2023/07/22 09:40:17;;;;;;;3.22;2.90;;;;;;;22.33;90.85;96703.75;5044882;28;20199;-66
2023/07/22 09:42:46;;;;;;;5.13;2.70;;;;;;;22.49;92.53;96697.03;5043932;28;20238;-62
2023/07/22 09:45:13;;;;;;;3.10;2.80;;;;;;;22.64;90.33;96693.00;5043961;28;20216;-64
2023/07/22 09:47:43;;;;;;;3.80;3.15;;;;;;;22.99;90.20;96687.19;5044186;28;20218;-65
2023/07/22 09:50:15;;;;;;;2.88;2.70;;;;;;;23.28;81.79;96691.91;5041785;28;20211;-63
2023/07/22 09:52:45;;;;;;;3.08;2.78;;;;;;;23.30;79.73;96685.25;5041772;28;20302;-63
2023/07/22 09:55:12;;;;;;;2.85;2.65;;;;;;;23.29;80.24;96683.59;5041806;28;20211;-62
2023/07/22 09:57:40;;;;;;;3.40;3.10;;;;;;;23.31;80.55;96688.78;5041268;28;20241;-63
2023/07/22 10:00:10;;;;;;;6.63;3.10;;;;;;;23.22;79.13;96690.94;5041422;28;20213;-62
2023/07/22 10:02:37;;;;;;;2.70;2.60;;;;;;;23.08;77.82;96683.16;5041588;28;20558;-63
2023/07/22 10:05:04;;;;;;;2.92;2.72;;;;;;;23.22;78.04;96687.41;5041967;28;20208;-62
2023/07/22 10:07:33;;;;;;;2.35;2.20;;;;;;;23.57;79.98;96679.63;5041163;28;20222;-63
2023/07/22 10:10:01;;;;;;;8.93;2.50;;;;;;;23.89;73.68;96670.34;5041109;28;20231;-63
2023/07/22 10:12:28;;;;;;;2.90;2.70;;;;;;;24.20;70.21;96672.88;5040858;28;20207;-63
2023/07/22 10:14:55;;;;;;;2.65;2.45;;;;;;;24.57;69.42;96680.91;5040865;28;20586;-63
2023/07/22 10:17:23;;;;;;;2.65;2.42;;;;;;;24.95;70.15;96672.47;5040706;28;20269;-64
2023/07/22 10:19:51;;;;;;;2.67;2.35;;;;;;;25.25;65.37;96676.75;5041745;28;20286;-68
2023/07/22 10:22:18;;;;;;;3.33;2.47;;;;;;;25.56;65.06;96663.94;5041652;28;20222;-65
2023/07/22 10:24:45;;;;;;;2.50;2.30;;;;;;;25.70;63.04;96665.34;5040519;28;20203;-64
2023/07/22 10:27:11;;;;;;;2.95;2.30;;;;;;;25.99;64.10;96658.13;5040545;28;20200;-64
2023/07/22 10:29:39;;;;;;;4.18;2.45;;;;;;;26.16;58.01;96662.53;5041576;28;20689;-67
2023/07/22 10:32:05;;;;;;;3.30;2.42;;;;;;;26.17;54.31;96649.81;5040639;28;20219;-64
2023/07/22 10:34:34;;;;;;;2.35;2.20;;;;;;;26.34;54.73;96650.72;5041254;28;20231;-68
2023/07/22 10:37:00;;;;;;;2.85;2.15;;;;;;;26.42;53.38;96642.22;5040810;28;20207;-64
2023/07/22 10:39:27;;;;;;;4.10;2.30;;;;;;;26.46;57.52;96650.69;5040825;28;20210;-64
2023/07/22 10:42:00;;;;;;;2.13;1.95;;;;;;;26.26;52.71;96642.97;5040664;28;20204;-64
2023/07/22 10:44:27;;;;;;;2.67;2.45;;;;;;;26.11;53.14;96637.22;5039413;28;20200;-64
2023/07/22 10:46:58;;;;;;;2.25;2.05;;;;;;;26.35;52.54;96636.09;5039289;28;20273;-65
2023/07/22 10:49:25;;;;;;;2.05;1.90;;;;;;;26.35;52.74;96641.53;5043606;28;20237;-65
2023/07/22 10:51:53;;;;;;;1.95;1.85;;;;;;;26.33;56.50;96626.53;5045612;28;20211;-65
2023/07/22 10:54:33;;;;;;;2.40;2.25;;;;;;;26.33;54.37;96615.69;5043326;28;20227;-64
2023/07/22 10:57:04;;;;;;;2.08;1.98;;;;;;;26.38;52.87;96621.22;5044605;28;20198;-65
2023/07/22 10:59:34;;;;;;;1.90;1.80;;;;;;;26.22;48.64;96609.25;5043496;28;20223;-64
2023/07/22 11:02:00;;;;;;;2.22;2.13;;;;;;;26.18;55.21;96627.09;5044768;28;20239;-64
2023/07/22 11:04:31;;;;;;;2.28;2.10;;;;;;;25.91;58.19;96615.94;5043941;28;20192;-66
2023/07/22 11:07:00;;;;;;;2.13;2.03;;;;;;;25.67;58.51;96622.50;5044050;28;20199;-64
2023/07/22 11:09:39;;;;;;;2.28;2.08;;;;;;;25.33;56.89;96621.41;5044287;28;20211;-64
2023/07/22 11:12:08;;;;;;;2.40;2.20;;;;;;;25.19;58.34;96620.84;5044064;28;20299;-63
2023/07/22 11:14:35;;;;;;;2.20;2.08;;;;;;;24.80;56.74;96620.66;5044379;28;20317;-64
2023/07/22 11:17:04;;;;;;;2.67;2.47;;;;;;;24.87;58.35;96618.72;5043270;28;20713;-65
2023/07/22 11:19:31;;;;;;;2.28;2.15;;;;;;;24.94;57.59;96608.59;5044035;28;20311;-64
2023/07/22 11:22:00;;;;;;;2.25;2.15;;;;;;;25.23;61.90;96605.78;5048981;28;20203;-65
2023/07/22 11:24:28;;;;;;;1.83;1.73;;;;;;;25.49;60.53;96609.88;5056162;28;20211;-64
2023/07/22 11:26:55;;;;;;;2.70;2.55;;;;;;;25.53;58.15;96607.56;5055745;28;20210;-64
2023/07/22 11:29:22;;;;;;;2.08;1.98;;;;;;;25.68;57.42;96605.97;5045639;28;20199;-64